sensor_id;sensor_type;location;lat;lon;timestamp;temperature;humidity
20288;DHT22;10303;51.960;8.372;2023-02-15T00:01:41;7.30;92.00
20288;DHT22;10303;51.960;8.372;2023-02-15T00:04:09;7.30;92.00
20288;DHT22;10303;51.960;8.372;2023-02-15T00:06:37;7.30;92.00
20288;DHT22;10303;51.960;8.372;2023-02-15T00:09:03;7.30;92.00
20288;DHT22;10303;51.960;8.372;2023-02-15T00:11:29;7.30;92.00
20288;DHT22;10303;51.960;8.372;2023-02-15T00:14:17;7.70;92.10
20288;DHT22;10303;51.960;8.372;2023-02-15T00:16:45;7.30;92.10
20288;DHT22;10303;51.960;8.372;2023-02-15T00:19:14;7.20;92.00
20288;DHT22;10303;51.960;8.372;2023-02-15T00:21:42;7.40;92.10
20288;DHT22;10303;51.960;8.372;2023-02-15T00:24:11;7.20;92.00
20288;DHT22;10303;51.960;8.372;2023-02-15T00:26:39;7.30;92.10
20288;DHT22;10303;51.960;8.372;2023-02-15T00:29:07;7.20;92.00
20288;DHT22;10303;51.960;8.372;2023-02-15T00:31:34;7.30;92.00
20288;DHT22;10303;51.960;8.372;2023-02-15T00:34:05;7.10;91.90
20288;DHT22;10303;51.960;8.372;2023-02-15T00:36:32;7.10;92.00
20288;DHT22;10303;51.960;8.372;2023-02-15T00:38:59;7.10;91.90
20288;DHT22;10303;51.960;8.372;2023-02-15T00:41:25;7.20;92.00
20288;DHT22;10303;51.960;8.372;2023-02-15T00:43:50;7.00;91.90
20288;DHT22;10303;51.960;8.372;2023-02-15T00:46:16;7.00;91.90
20288;DHT22;10303;51.960;8.372;2023-02-15T00:48:42;7.00;91.90
20288;DHT22;10303;51.960;8.372;2023-02-15T00:51:08;7.00;91.90
20288;DHT22;10303;51.960;8.372;2023-02-15T00:53:34;6.90;91.90
20288;DHT22;10303;51.960;8.372;2023-02-15T00:56:00;6.90;91.90
20288;DHT22;10303;51.960;8.372;2023-02-15T00:58:26;6.90;92.00
20288;DHT22;10303;51.960;8.372;2023-02-15T01:00:52;6.80;91.90
20288;DHT22;10303;51.960;8.372;2023-02-15T01:03:19;6.80;92.00
20288;DHT22;10303;51.960;8.372;2023-02-15T01:05:47;6.80;92.00
20288;DHT22;10303;51.960;8.372;2023-02-15T01:08:15;6.80;92.00
20288;DHT22;10303;51.960;8.372;2023-02-15T01:10:41;6.70;91.90
20288;DHT22;10303;51.960;8.372;2023-02-15T01:13:09;6.70;91.90
20288;DHT22;10303;51.960;8.372;2023-02-15T01:15:35;6.80;92.00
20288;DHT22;10303;51.960;8.372;2023-02-15T01:18:01;6.70;92.10
20288;DHT22;10303;51.960;8.372;2023-02-15T01:20:28;6.60;92.10
20288;DHT22;10303;51.960;8.372;2023-02-15T01:22:57;6.50;92.10
20288;DHT22;10303;51.960;8.372;2023-02-15T01:25:24;6.50;92.20
20288;DHT22;10303;51.960;8.372;2023-02-15T01:27:50;6.50;92.20
20288;DHT22;10303;51.960;8.372;2023-02-15T01:30:16;6.60;92.20
20288;DHT22;10303;51.960;8.372;2023-02-15T01:32:43;6.50;92.20
20288;DHT22;10303;51.960;8.372;2023-02-15T01:35:09;6.40;92.20
20288;DHT22;10303;51.960;8.372;2023-02-15T01:37:36;6.40;92.20
20288;DHT22;10303;51.960;8.372;2023-02-15T01:40:05;6.40;92.10
20288;DHT22;10303;51.960;8.372;2023-02-15T01:42:34;6.30;92.20
20288;DHT22;10303;51.960;8.372;2023-02-15T01:47:57;6.30;92.30
20288;DHT22;10303;51.960;8.372;2023-02-15T01:50:37;6.20;92.30
20288;DHT22;10303;51.960;8.372;2023-02-15T01:55:55;6.20;92.50
20288;DHT22;10303;51.960;8.372;2023-02-15T01:58:28;6.10;92.40
20288;DHT22;10303;51.960;8.372;2023-02-15T02:00:56;6.10;92.30
20288;DHT22;10303;51.960;8.372;2023-02-15T02:06:37;6.10;92.70
20288;DHT22;10303;51.960;8.372;2023-02-15T02:09:05;6.00;92.20
20288;DHT22;10303;51.960;8.372;2023-02-15T02:11:32;6.00;92.20
20288;DHT22;10303;51.960;8.372;2023-02-15T02:13:59;6.00;92.30
20288;DHT22;10303;51.960;8.372;2023-02-15T02:16:38;6.00;92.40
20288;DHT22;10303;51.960;8.372;2023-02-15T02:31:28;5.80;92.70
20288;DHT22;10303;51.960;8.372;2023-02-15T02:34:21;5.80;92.60
20288;DHT22;10303;51.960;8.372;2023-02-15T02:37:03;5.80;92.90
20288;DHT22;10303;51.960;8.372;2023-02-15T02:42:43;5.80;93.10
20288;DHT22;10303;51.960;8.372;2023-02-15T02:45:23;5.80;92.90
20288;DHT22;10303;51.960;8.372;2023-02-15T02:47:53;5.70;92.80
20288;DHT22;10303;51.960;8.372;2023-02-15T02:50:27;5.70;92.90
20288;DHT22;10303;51.960;8.372;2023-02-15T02:52:57;5.70;93.10
20288;DHT22;10303;51.960;8.372;2023-02-15T02:55:46;5.70;93.10
20288;DHT22;10303;51.960;8.372;2023-02-15T02:58:42;5.60;93.40
20288;DHT22;10303;51.960;8.372;2023-02-15T03:01:37;5.60;93.50
20288;DHT22;10303;51.960;8.372;2023-02-15T03:04:17;5.60;93.30
20288;DHT22;10303;51.960;8.372;2023-02-15T03:06:58;5.60;93.30
20288;DHT22;10303;51.960;8.372;2023-02-15T03:12:14;5.60;93.20
20288;DHT22;10303;51.960;8.372;2023-02-15T03:14:49;5.50;93.20
20288;DHT22;10303;51.960;8.372;2023-02-15T03:17:20;5.50;93.10
20288;DHT22;10303;51.960;8.372;2023-02-15T03:19:50;5.40;93.20
20288;DHT22;10303;51.960;8.372;2023-02-15T03:22:23;5.40;93.20
20288;DHT22;10303;51.960;8.372;2023-02-15T03:25:05;5.50;93.30
20288;DHT22;10303;51.960;8.372;2023-02-15T03:27:43;5.40;93.50
20288;DHT22;10303;51.960;8.372;2023-02-15T03:30:12;5.30;93.40
20288;DHT22;10303;51.960;8.372;2023-02-15T03:32:41;5.40;93.30
20288;DHT22;10303;51.960;8.372;2023-02-15T03:35:10;5.30;93.40
20288;DHT22;10303;51.960;8.372;2023-02-15T03:37:48;5.40;93.40
20288;DHT22;10303;51.960;8.372;2023-02-15T03:40:29;5.30;93.60
20288;DHT22;10303;51.960;8.372;2023-02-15T03:43:39;5.30;93.70
20288;DHT22;10303;51.960;8.372;2023-02-15T03:46:24;5.50;93.90
20288;DHT22;10303;51.960;8.372;2023-02-15T03:48:58;5.30;93.70
20288;DHT22;10303;51.960;8.372;2023-02-15T03:51:32;5.20;93.60
20288;DHT22;10303;51.960;8.372;2023-02-15T03:54:12;5.20;93.70
20288;DHT22;10303;51.960;8.372;2023-02-15T03:57:01;5.20;93.60
20288;DHT22;10303;51.960;8.372;2023-02-15T03:59:46;5.20;93.60
20288;DHT22;10303;51.960;8.372;2023-02-15T04:02:44;5.30;93.60
20288;DHT22;10303;51.960;8.372;2023-02-15T04:05:11;5.20;93.70
20288;DHT22;10303;51.960;8.372;2023-02-15T04:07:36;5.10;93.90
20288;DHT22;10303;51.960;8.372;2023-02-15T04:10:02;5.10;93.70
20288;DHT22;10303;51.960;8.372;2023-02-15T04:12:47;5.10;93.80
20288;DHT22;10303;51.960;8.372;2023-02-15T04:15:13;5.10;93.70
20288;DHT22;10303;51.960;8.372;2023-02-15T04:17:57;5.10;93.80
20288;DHT22;10303;51.960;8.372;2023-02-15T04:20:23;5.10;93.80
20288;DHT22;10303;51.960;8.372;2023-02-15T04:23:07;5.00;93.80
20288;DHT22;10303;51.960;8.372;2023-02-15T04:25:52;5.00;93.80
20288;DHT22;10303;51.960;8.372;2023-02-15T04:28:18;5.00;93.90
20288;DHT22;10303;51.960;8.372;2023-02-15T04:30:44;5.00;93.90
20288;DHT22;10303;51.960;8.372;2023-02-15T04:33:09;5.00;94.00
20288;DHT22;10303;51.960;8.372;2023-02-15T04:35:36;5.00;94.00
20288;DHT22;10303;51.960;8.372;2023-02-15T04:38:01;5.00;94.10
20288;DHT22;10303;51.960;8.372;2023-02-15T04:40:27;5.00;94.20
20288;DHT22;10303;51.960;8.372;2023-02-15T04:42:53;4.90;94.30
20288;DHT22;10303;51.960;8.372;2023-02-15T04:45:19;4.90;94.30
20288;DHT22;10303;51.960;8.372;2023-02-15T04:47:45;4.90;94.30
20288;DHT22;10303;51.960;8.372;2023-02-15T04:50:11;4.90;94.70
20288;DHT22;10303;51.960;8.372;2023-02-15T04:52:38;4.90;94.40
20288;DHT22;10303;51.960;8.372;2023-02-15T04:55:04;4.90;94.40
20288;DHT22;10303;51.960;8.372;2023-02-15T04:57:30;4.90;94.40
20288;DHT22;10303;51.960;8.372;2023-02-15T04:59:56;4.90;94.40
20288;DHT22;10303;51.960;8.372;2023-02-15T05:02:23;4.90;94.50
20288;DHT22;10303;51.960;8.372;2023-02-15T05:04:49;4.90;94.40
20288;DHT22;10303;51.960;8.372;2023-02-15T05:07:15;4.80;94.40
20288;DHT22;10303;51.960;8.372;2023-02-15T05:09:42;4.80;94.50
20288;DHT22;10303;51.960;8.372;2023-02-15T05:12:08;4.80;94.60
20288;DHT22;10303;51.960;8.372;2023-02-15T05:14:34;4.80;94.50
20288;DHT22;10303;51.960;8.372;2023-02-15T05:17:00;4.80;94.50
20288;DHT22;10303;51.960;8.372;2023-02-15T05:19:27;4.80;94.50
20288;DHT22;10303;51.960;8.372;2023-02-15T05:21:53;4.80;94.60
20288;DHT22;10303;51.960;8.372;2023-02-15T05:24:19;4.80;94.90
20288;DHT22;10303;51.960;8.372;2023-02-15T05:27:04;4.80;94.60
20288;DHT22;10303;51.960;8.372;2023-02-15T05:29:48;4.70;94.50
20288;DHT22;10303;51.960;8.372;2023-02-15T05:32:14;4.70;94.60
20288;DHT22;10303;51.960;8.372;2023-02-15T05:34:40;4.70;94.50
20288;DHT22;10303;51.960;8.372;2023-02-15T05:37:06;4.70;94.50
20288;DHT22;10303;51.960;8.372;2023-02-15T05:39:33;4.70;94.60
20288;DHT22;10303;51.960;8.372;2023-02-15T05:41:59;4.80;94.70
20288;DHT22;10303;51.960;8.372;2023-02-15T05:44:25;4.70;94.70
20288;DHT22;10303;51.960;8.372;2023-02-15T05:46:51;4.60;94.70
20288;DHT22;10303;51.960;8.372;2023-02-15T05:49:17;4.60;94.70
20288;DHT22;10303;51.960;8.372;2023-02-15T05:51:43;4.60;94.70
20288;DHT22;10303;51.960;8.372;2023-02-15T05:54:09;4.60;94.70
20288;DHT22;10303;51.960;8.372;2023-02-15T05:56:35;4.60;94.70
20288;DHT22;10303;51.960;8.372;2023-02-15T05:59:01;4.60;94.70
20288;DHT22;10303;51.960;8.372;2023-02-15T06:01:27;4.50;94.80
20288;DHT22;10303;51.960;8.372;2023-02-15T06:03:53;4.60;94.90
20288;DHT22;10303;51.960;8.372;2023-02-15T06:06:21;4.50;94.80
20288;DHT22;10303;51.960;8.372;2023-02-15T06:08:48;4.50;94.80
20288;DHT22;10303;51.960;8.372;2023-02-15T06:11:14;4.50;94.80
20288;DHT22;10303;51.960;8.372;2023-02-15T06:13:40;4.50;94.80
20288;DHT22;10303;51.960;8.372;2023-02-15T06:16:06;4.40;94.80
20288;DHT22;10303;51.960;8.372;2023-02-15T06:18:32;4.40;94.80
20288;DHT22;10303;51.960;8.372;2023-02-15T06:20:58;4.40;94.80
20288;DHT22;10303;51.960;8.372;2023-02-15T06:23:24;4.40;94.90
20288;DHT22;10303;51.960;8.372;2023-02-15T06:25:50;4.40;94.90
20288;DHT22;10303;51.960;8.372;2023-02-15T06:28:16;4.40;94.90
20288;DHT22;10303;51.960;8.372;2023-02-15T06:30:42;4.30;94.80
20288;DHT22;10303;51.960;8.372;2023-02-15T06:33:08;4.30;94.90
20288;DHT22;10303;51.960;8.372;2023-02-15T06:35:34;4.40;95.00
20288;DHT22;10303;51.960;8.372;2023-02-15T06:38:00;4.30;95.00
20288;DHT22;10303;51.960;8.372;2023-02-15T06:40:26;4.30;95.00
20288;DHT22;10303;51.960;8.372;2023-02-15T06:42:52;4.30;95.00
20288;DHT22;10303;51.960;8.372;2023-02-15T06:45:18;4.30;95.00
20288;DHT22;10303;51.960;8.372;2023-02-15T06:47:44;4.30;95.10
20288;DHT22;10303;51.960;8.372;2023-02-15T06:50:11;4.30;95.10
20288;DHT22;10303;51.960;8.372;2023-02-15T06:52:37;4.30;95.20
20288;DHT22;10303;51.960;8.372;2023-02-15T06:55:04;4.30;95.20
20288;DHT22;10303;51.960;8.372;2023-02-15T06:57:30;4.20;95.20
20288;DHT22;10303;51.960;8.372;2023-02-15T06:59:56;4.20;95.20
20288;DHT22;10303;51.960;8.372;2023-02-15T07:02:23;4.20;95.20
20288;DHT22;10303;51.960;8.372;2023-02-15T07:04:49;4.20;95.20
20288;DHT22;10303;51.960;8.372;2023-02-15T07:07:15;4.20;95.20
20288;DHT22;10303;51.960;8.372;2023-02-15T07:09:41;4.30;95.30
20288;DHT22;10303;51.960;8.372;2023-02-15T07:12:07;4.30;95.40
20288;DHT22;10303;51.960;8.372;2023-02-15T07:14:53;4.20;95.40
20288;DHT22;10303;51.960;8.372;2023-02-15T07:17:19;4.20;95.40
20288;DHT22;10303;51.960;8.372;2023-02-15T07:19:45;4.20;95.40
20288;DHT22;10303;51.960;8.372;2023-02-15T07:22:11;4.20;95.50
20288;DHT22;10303;51.960;8.372;2023-02-15T07:24:37;4.20;95.50
20288;DHT22;10303;51.960;8.372;2023-02-15T07:27:03;4.10;95.60
20288;DHT22;10303;51.960;8.372;2023-02-15T07:29:29;4.20;95.70
20288;DHT22;10303;51.960;8.372;2023-02-15T07:31:55;4.30;95.70
20288;DHT22;10303;51.960;8.372;2023-02-15T07:34:21;4.20;95.80
20288;DHT22;10303;51.960;8.372;2023-02-15T07:36:47;4.20;95.90
20288;DHT22;10303;51.960;8.372;2023-02-15T07:39:12;4.20;95.90
20288;DHT22;10303;51.960;8.372;2023-02-15T07:41:38;4.20;96.00
20288;DHT22;10303;51.960;8.372;2023-02-15T07:44:14;4.20;96.10
20288;DHT22;10303;51.960;8.372;2023-02-15T07:46:40;4.30;96.20
20288;DHT22;10303;51.960;8.372;2023-02-15T07:49:07;4.30;96.20
20288;DHT22;10303;51.960;8.372;2023-02-15T07:51:33;4.30;96.30
20288;DHT22;10303;51.960;8.372;2023-02-15T07:53:59;4.30;96.40
20288;DHT22;10303;51.960;8.372;2023-02-15T07:56:25;4.30;96.50
20288;DHT22;10303;51.960;8.372;2023-02-15T07:58:51;4.40;96.60
20288;DHT22;10303;51.960;8.372;2023-02-15T08:01:24;4.40;96.70
20288;DHT22;10303;51.960;8.372;2023-02-15T08:03:55;4.40;96.80
20288;DHT22;10303;51.960;8.372;2023-02-15T08:06:24;4.50;96.80
20288;DHT22;10303;51.960;8.372;2023-02-15T08:08:52;4.50;97.00
20288;DHT22;10303;51.960;8.372;2023-02-15T08:11:22;4.50;97.10
20288;DHT22;10303;51.960;8.372;2023-02-15T08:14:04;4.60;97.30
20288;DHT22;10303;51.960;8.372;2023-02-15T08:19:18;4.70;97.70
20288;DHT22;10303;51.960;8.372;2023-02-15T08:21:48;4.70;97.60
20288;DHT22;10303;51.960;8.372;2023-02-15T08:24:20;4.70;97.90
20288;DHT22;10303;51.960;8.372;2023-02-15T08:26:49;4.80;98.00
20288;DHT22;10303;51.960;8.372;2023-02-15T08:29:17;4.80;98.10
20288;DHT22;10303;51.960;8.372;2023-02-15T08:31:45;4.90;98.10
20288;DHT22;10303;51.960;8.372;2023-02-15T08:34:14;4.90;98.30
20288;DHT22;10303;51.960;8.372;2023-02-15T08:36:43;5.00;98.40
20288;DHT22;10303;51.960;8.372;2023-02-15T08:39:14;5.10;98.80
20288;DHT22;10303;51.960;8.372;2023-02-15T08:41:45;5.20;98.80
20288;DHT22;10303;51.960;8.372;2023-02-15T08:44:13;5.20;98.90
20288;DHT22;10303;51.960;8.372;2023-02-15T08:46:43;5.20;99.30
20288;DHT22;10303;51.960;8.372;2023-02-15T08:49:13;5.40;99.60
20288;DHT22;10303;51.960;8.372;2023-02-15T08:51:42;5.40;99.60
20288;DHT22;10303;51.960;8.372;2023-02-15T08:54:12;5.50;99.70
20288;DHT22;10303;51.960;8.372;2023-02-15T08:56:42;5.50;99.90
20288;DHT22;10303;51.960;8.372;2023-02-15T08:59:15;5.50;99.90
20288;DHT22;10303;51.960;8.372;2023-02-15T09:01:43;5.60;99.90
20288;DHT22;10303;51.960;8.372;2023-02-15T09:04:09;5.70;99.90
20288;DHT22;10303;51.960;8.372;2023-02-15T09:06:40;5.70;99.90
20288;DHT22;10303;51.960;8.372;2023-02-15T09:09:07;5.80;99.90
20288;DHT22;10303;51.960;8.372;2023-02-15T09:11:36;5.90;99.90
20288;DHT22;10303;51.960;8.372;2023-02-15T09:14:07;6.00;99.90
20288;DHT22;10303;51.960;8.372;2023-02-15T09:16:36;6.40;99.90
20288;DHT22;10303;51.960;8.372;2023-02-15T09:19:04;6.50;99.90
20288;DHT22;10303;51.960;8.372;2023-02-15T09:21:31;6.70;99.90
20288;DHT22;10303;51.960;8.372;2023-02-15T09:24:00;7.00;99.90
20288;DHT22;10303;51.960;8.372;2023-02-15T09:26:29;7.30;99.90
20288;DHT22;10303;51.960;8.372;2023-02-15T09:28:59;7.60;99.90
20288;DHT22;10303;51.960;8.372;2023-02-15T09:31:28;8.00;99.90
20288;DHT22;10303;51.960;8.372;2023-02-15T09:33:57;8.70;99.90
20288;DHT22;10303;51.960;8.372;2023-02-15T09:36:31;8.70;99.90
20288;DHT22;10303;51.960;8.372;2023-02-15T09:39:15;9.10;99.90
20288;DHT22;10303;51.960;8.372;2023-02-15T09:44:30;9.80;99.90
20288;DHT22;10303;51.960;8.372;2023-02-15T09:49:54;10.60;99.90
20288;DHT22;10303;51.960;8.372;2023-02-15T09:57:59;11.60;99.90
20288;DHT22;10303;51.960;8.372;2023-02-15T10:10:17;13.00;99.90
20288;DHT22;10303;51.960;8.372;2023-02-15T10:15:55;13.60;99.90
20288;DHT22;10303;51.960;8.372;2023-02-15T10:22:02;14.20;99.90
20288;DHT22;10303;51.960;8.372;2023-02-15T10:25:12;14.50;99.90
20288;DHT22;10303;51.960;8.372;2023-02-15T10:27:51;14.90;99.90
20288;DHT22;10303;51.960;8.372;2023-02-15T10:33:00;15.30;99.90
20288;DHT22;10303;51.960;8.372;2023-02-15T10:35:48;15.50;99.80
20288;DHT22;10303;51.960;8.372;2023-02-15T10:38:37;15.70;99.90
20288;DHT22;10303;51.960;8.372;2023-02-15T10:41:38;15.80;98.70
20288;DHT22;10303;51.960;8.372;2023-02-15T10:44:28;15.90;98.40
20288;DHT22;10303;51.960;8.372;2023-02-15T10:50:57;16.00;97.50
20288;DHT22;10303;51.960;8.372;2023-02-15T10:59:26;16.10;95.90
20288;DHT22;10303;51.960;8.372;2023-02-15T11:07:43;16.30;95.10
20288;DHT22;10303;51.960;8.372;2023-02-15T11:13:19;16.50;95.90
20288;DHT22;10303;51.960;8.372;2023-02-15T11:15:58;16.70;94.90
20288;DHT22;10303;51.960;8.372;2023-02-15T11:18:40;16.90;95.80
20288;DHT22;10303;51.960;8.372;2023-02-15T11:21:24;17.10;94.80
20288;DHT22;10303;51.960;8.372;2023-02-15T11:23:59;17.30;95.70
20288;DHT22;10303;51.960;8.372;2023-02-15T11:29:22;17.80;93.30
20288;DHT22;10303;51.960;8.372;2023-02-15T11:31:56;18.00;94.80
20288;DHT22;10303;51.960;8.372;2023-02-15T11:34:31;18.30;95.10
20288;DHT22;10303;51.960;8.372;2023-02-15T11:37:10;18.60;93.60
20288;DHT22;10303;51.960;8.372;2023-02-15T11:39:41;18.80;91.70
20288;DHT22;10303;51.960;8.372;2023-02-15T11:42:14;19.10;93.80
20288;DHT22;10303;51.960;8.372;2023-02-15T11:44:54;19.30;92.20
20288;DHT22;10303;51.960;8.372;2023-02-15T11:47:22;19.50;89.60
20288;DHT22;10303;51.960;8.372;2023-02-15T11:49:48;19.70;91.20
20288;DHT22;10303;51.960;8.372;2023-02-15T11:52:16;20.00;90.60
20288;DHT22;10303;51.960;8.372;2023-02-15T11:54:47;20.20;91.00
20288;DHT22;10303;51.960;8.372;2023-02-15T11:57:30;20.40;90.70
20288;DHT22;10303;51.960;8.372;2023-02-15T12:02:38;20.90;89.60
20288;DHT22;10303;51.960;8.372;2023-02-15T12:05:16;21.10;90.00
20288;DHT22;10303;51.960;8.372;2023-02-15T12:07:48;21.30;84.50
20288;DHT22;10303;51.960;8.372;2023-02-15T12:10:24;21.60;86.10
20288;DHT22;10303;51.960;8.372;2023-02-15T12:15:43;21.80;85.50
20288;DHT22;10303;51.960;8.372;2023-02-15T12:21:10;22.10;82.60
20288;DHT22;10303;51.960;8.372;2023-02-15T12:23:47;22.20;82.80
20288;DHT22;10303;51.960;8.372;2023-02-15T12:26:27;22.30;77.50
20288;DHT22;10303;51.960;8.372;2023-02-15T12:28:57;22.50;81.70
20288;DHT22;10303;51.960;8.372;2023-02-15T12:31:39;22.60;81.00
20288;DHT22;10303;51.960;8.372;2023-02-15T12:34:26;22.70;80.80
20288;DHT22;10303;51.960;8.372;2023-02-15T12:37:02;22.90;74.90
20288;DHT22;10303;51.960;8.372;2023-02-15T12:39:35;23.00;79.40
20288;DHT22;10303;51.960;8.372;2023-02-15T12:42:03;23.10;76.40
20288;DHT22;10303;51.960;8.372;2023-02-15T12:45:02;23.20;75.80
20288;DHT22;10303;51.960;8.372;2023-02-15T12:47:44;23.30;73.90
20288;DHT22;10303;51.960;8.372;2023-02-15T12:50:23;23.40;74.80
20288;DHT22;10303;51.960;8.372;2023-02-15T12:53:07;23.40;73.70
20288;DHT22;10303;51.960;8.372;2023-02-15T12:55:41;23.50;73.40
20288;DHT22;10303;51.960;8.372;2023-02-15T13:00:43;23.60;68.30
20288;DHT22;10303;51.960;8.372;2023-02-15T13:03:21;23.60;71.60
20288;DHT22;10303;51.960;8.372;2023-02-15T13:05:54;23.60;66.90
20288;DHT22;10303;51.960;8.372;2023-02-15T13:08:28;23.70;66.00
20288;DHT22;10303;51.960;8.372;2023-02-15T13:13:34;23.60;62.60
20288;DHT22;10303;51.960;8.372;2023-02-15T13:16:17;23.50;64.00
20288;DHT22;10303;51.960;8.372;2023-02-15T13:18:54;23.40;66.00
20288;DHT22;10303;51.960;8.372;2023-02-15T13:21:26;23.40;66.80
20288;DHT22;10303;51.960;8.372;2023-02-15T13:24:01;23.40;65.50
20288;DHT22;10303;51.960;8.372;2023-02-15T13:26:32;23.40;65.70
20288;DHT22;10303;51.960;8.372;2023-02-15T13:29:10;23.30;64.90
20288;DHT22;10303;51.960;8.372;2023-02-15T13:32:48;23.30;65.30
20288;DHT22;10303;51.960;8.372;2023-02-15T13:35:04;23.30;65.20
20288;DHT22;10303;51.960;8.372;2023-02-15T13:38:00;23.30;66.10
20288;DHT22;10303;51.960;8.372;2023-02-15T13:40:55;23.30;65.70
20288;DHT22;10303;51.960;8.372;2023-02-15T13:43:50;23.30;65.50
20288;DHT22;10303;51.960;8.372;2023-02-15T13:52:28;23.10;65.90
20288;DHT22;10303;51.960;8.372;2023-02-15T14:09:18;22.60;63.60
20288;DHT22;10303;51.960;8.372;2023-02-15T14:14:52;22.50;64.70
20288;DHT22;10303;51.960;8.372;2023-02-15T14:23:48;22.20;63.90
20288;DHT22;10303;51.960;8.372;2023-02-15T14:26:50;22.10;63.90
20288;DHT22;10303;51.960;8.372;2023-02-15T14:29:51;22.00;64.10
20288;DHT22;10303;51.960;8.372;2023-02-15T14:32:35;21.90;64.10
20288;DHT22;10303;51.960;8.372;2023-02-15T14:35:22;21.90;63.70
20288;DHT22;10303;51.960;8.372;2023-02-15T14:40:48;21.70;64.40
20288;DHT22;10303;51.960;8.372;2023-02-15T14:49:05;21.40;64.40
20288;DHT22;10303;51.960;8.372;2023-02-15T14:54:10;21.30;65.00
20288;DHT22;10303;51.960;8.372;2023-02-15T15:02:44;21.00;64.40
20288;DHT22;10303;51.960;8.372;2023-02-15T15:05:20;20.90;64.20
20288;DHT22;10303;51.960;8.372;2023-02-15T15:07:55;20.90;65.30
20288;DHT22;10303;51.960;8.372;2023-02-15T15:10:37;20.80;65.30
20288;DHT22;10303;51.960;8.372;2023-02-15T15:13:36;20.70;65.90
20288;DHT22;10303;51.960;8.372;2023-02-15T15:19:04;20.60;65.80
20288;DHT22;10303;51.960;8.372;2023-02-15T15:27:42;20.50;66.20
20288;DHT22;10303;51.960;8.372;2023-02-15T15:35:55;20.30;65.70
20288;DHT22;10303;51.960;8.372;2023-02-15T15:42:31;20.20;66.20
20288;DHT22;10303;51.960;8.372;2023-02-15T15:51:32;20.00;67.00
20288;DHT22;10303;51.960;8.372;2023-02-15T15:54:00;19.90;67.10
20288;DHT22;10303;51.960;8.372;2023-02-15T15:56:31;19.80;67.20
20288;DHT22;10303;51.960;8.372;2023-02-15T15:59:05;19.80;67.30
20288;DHT22;10303;51.960;8.372;2023-02-15T16:01:40;19.60;67.10
20288;DHT22;10303;51.960;8.372;2023-02-15T16:04:12;19.50;66.60
20288;DHT22;10303;51.960;8.372;2023-02-15T16:06:47;19.50;66.60
20288;DHT22;10303;51.960;8.372;2023-02-15T16:09:39;19.40;66.70
20288;DHT22;10303;51.960;8.372;2023-02-15T16:12:13;19.20;66.60
20288;DHT22;10303;51.960;8.372;2023-02-15T16:14:43;19.10;66.30
20288;DHT22;10303;51.960;8.372;2023-02-15T16:17:25;19.10;66.60
20288;DHT22;10303;51.960;8.372;2023-02-15T16:26:16;18.70;66.70
20288;DHT22;10303;51.960;8.372;2023-02-15T16:28:54;18.60;66.70
20288;DHT22;10303;51.960;8.372;2023-02-15T16:31:22;18.50;66.60
20288;DHT22;10303;51.960;8.372;2023-02-15T16:33:51;18.40;66.60
20288;DHT22;10303;51.960;8.372;2023-02-15T16:36:27;18.20;66.70
20288;DHT22;10303;51.960;8.372;2023-02-15T16:41:24;18.00;66.70
20288;DHT22;10303;51.960;8.372;2023-02-15T16:43:54;17.90;66.90
20288;DHT22;10303;51.960;8.372;2023-02-15T16:51:43;17.50;67.30
20288;DHT22;10303;51.960;8.372;2023-02-15T16:54:21;17.40;67.20
20288;DHT22;10303;51.960;8.372;2023-02-15T16:56:48;17.30;67.50
20288;DHT22;10303;51.960;8.372;2023-02-15T16:59:27;17.20;67.50
20288;DHT22;10303;51.960;8.372;2023-02-15T17:01:58;17.00;67.60
20288;DHT22;10303;51.960;8.372;2023-02-15T17:04:29;16.90;67.50
20288;DHT22;10303;51.960;8.372;2023-02-15T17:09:33;16.70;67.60
20288;DHT22;10303;51.960;8.372;2023-02-15T17:12:00;16.50;67.70
20288;DHT22;10303;51.960;8.372;2023-02-15T17:14:30;16.40;67.80
20288;DHT22;10303;51.960;8.372;2023-02-15T17:17:07;16.20;68.00
20288;DHT22;10303;51.960;8.372;2023-02-15T17:19:50;16.10;68.20
20288;DHT22;10303;51.960;8.372;2023-02-15T17:22:25;16.00;68.70
20288;DHT22;10303;51.960;8.372;2023-02-15T17:25:00;15.90;68.60
20288;DHT22;10303;51.960;8.372;2023-02-15T17:27:29;15.70;69.00
20288;DHT22;10303;51.960;8.372;2023-02-15T17:29:59;15.60;68.70
20288;DHT22;10303;51.960;8.372;2023-02-15T17:32:29;15.40;68.70
20288;DHT22;10303;51.960;8.372;2023-02-15T17:35:04;15.30;69.00
20288;DHT22;10303;51.960;8.372;2023-02-15T17:42:46;15.00;70.00
20288;DHT22;10303;51.960;8.372;2023-02-15T17:45:14;14.90;69.60
20288;DHT22;10303;51.960;8.372;2023-02-15T17:47:40;14.70;69.80
20288;DHT22;10303;51.960;8.372;2023-02-15T17:50:07;14.70;70.10
20288;DHT22;10303;51.960;8.372;2023-02-15T17:52:41;14.50;70.30
20288;DHT22;10303;51.960;8.372;2023-02-15T17:55:15;14.40;70.40
20288;DHT22;10303;51.960;8.372;2023-02-15T17:58:12;14.30;71.20
20288;DHT22;10303;51.960;8.372;2023-02-15T18:00:44;14.20;71.20
20288;DHT22;10303;51.960;8.372;2023-02-15T18:03:44;14.10;71.50
20288;DHT22;10303;51.960;8.372;2023-02-15T18:06:32;14.00;72.20
20288;DHT22;10303;51.960;8.372;2023-02-15T18:09:20;13.90;71.90
20288;DHT22;10303;51.960;8.372;2023-02-15T18:12:24;13.80;72.30
20288;DHT22;10303;51.960;8.372;2023-02-15T18:15:01;13.70;73.20
20288;DHT22;10303;51.960;8.372;2023-02-15T18:17:36;13.70;73.00
20288;DHT22;10303;51.960;8.372;2023-02-15T18:20:26;13.50;73.90
20288;DHT22;10303;51.960;8.372;2023-02-15T18:22:56;13.50;75.70
20288;DHT22;10303;51.960;8.372;2023-02-15T18:25:22;13.40;74.20
20288;DHT22;10303;51.960;8.372;2023-02-15T18:27:50;13.40;74.30
20288;DHT22;10303;51.960;8.372;2023-02-15T18:30:22;13.40;74.60
20288;DHT22;10303;51.960;8.372;2023-02-15T18:32:52;13.20;75.00
20288;DHT22;10303;51.960;8.372;2023-02-15T18:35:23;13.20;75.70
20288;DHT22;10303;51.960;8.372;2023-02-15T18:37:53;13.10;75.00
20288;DHT22;10303;51.960;8.372;2023-02-15T18:40:21;13.20;75.00
20288;DHT22;10303;51.960;8.372;2023-02-15T18:42:49;13.00;75.30
20288;DHT22;10303;51.960;8.372;2023-02-15T18:45:24;12.90;75.60
20288;DHT22;10303;51.960;8.372;2023-02-15T18:47:56;12.80;76.20
20288;DHT22;10303;51.960;8.372;2023-02-15T18:50:23;12.90;75.70
20288;DHT22;10303;51.960;8.372;2023-02-15T18:52:53;12.80;75.80
20288;DHT22;10303;51.960;8.372;2023-02-15T18:55:26;12.70;75.70
20288;DHT22;10303;51.960;8.372;2023-02-15T18:57:55;12.60;76.20
20288;DHT22;10303;51.960;8.372;2023-02-15T19:00:23;12.70;76.70
20288;DHT22;10303;51.960;8.372;2023-02-15T19:02:53;12.50;76.30
20288;DHT22;10303;51.960;8.372;2023-02-15T19:05:20;12.40;76.80
20288;DHT22;10303;51.960;8.372;2023-02-15T19:07:48;12.40;76.90
20288;DHT22;10303;51.960;8.372;2023-02-15T19:10:19;12.40;77.00
20288;DHT22;10303;51.960;8.372;2023-02-15T19:12:49;12.30;76.90
20288;DHT22;10303;51.960;8.372;2023-02-15T19:15:25;12.20;76.90
20288;DHT22;10303;51.960;8.372;2023-02-15T19:17:53;12.20;77.80
20288;DHT22;10303;51.960;8.372;2023-02-15T19:20:21;12.30;77.30
20288;DHT22;10303;51.960;8.372;2023-02-15T19:22:51;12.10;77.60